createdAt,value
2018-12-05T00:01:40.355Z,102681.12
2018-12-05T00:04:10.857Z,102694.20
2018-12-05T00:06:40.923Z,102692.89
2018-12-05T00:09:11.808Z,102688.95
2018-12-05T00:11:43.107Z,102694.19
2018-12-05T00:14:14.033Z,102690.19
2018-12-05T00:16:44.764Z,102696.69
2018-12-05T00:19:15.690Z,102690.95
2018-12-05T00:21:45.611Z,102692.58
2018-12-05T00:24:18.156Z,102702.90
2018-12-05T00:26:48.484Z,102709.35
2018-12-05T00:29:19.367Z,102704.45
2018-12-05T00:31:49.256Z,102699.50
2018-12-05T00:34:22.622Z,102712.45
2018-12-05T00:36:53.277Z,102703.59
2018-12-05T00:39:23.523Z,102706.95
2018-12-05T00:41:54.546Z,102712.92
2018-12-05T00:44:25.108Z,102714.95
2018-12-05T00:47:04.282Z,102710.08
2018-12-05T00:49:36.072Z,102711.81
2018-12-05T00:52:08.588Z,102706.38
2018-12-05T00:54:42.989Z,102704.52
2018-12-05T00:57:14.952Z,102712.76
2018-12-05T00:59:46.784Z,102718.73
2018-12-05T01:02:16.951Z,102715.96
2018-12-05T01:04:49.513Z,102709.94
2018-12-05T01:07:24.364Z,102697.59
2018-12-05T01:09:57.012Z,102694.05
2018-12-05T01:12:30.011Z,102701.03
2018-12-05T01:15:01.831Z,102700.66
2018-12-05T01:17:33.067Z,102697.24
2018-12-05T01:20:03.894Z,102695.00
2018-12-05T01:22:35.379Z,102702.34
2018-12-05T01:25:05.500Z,102707.25
2018-12-05T01:27:38.801Z,102708.55
2018-12-05T01:30:08.883Z,102720.47
2018-12-05T01:32:39.203Z,102722.14
2018-12-05T01:35:10.443Z,102719.61
2018-12-05T01:37:41.174Z,102717.91
2018-12-05T01:40:12.646Z,102713.58
2018-12-05T01:42:43.538Z,102713.58
2018-12-05T01:45:15.156Z,102707.55
2018-12-05T01:47:52.980Z,102711.45
2018-12-05T01:50:23.444Z,102711.37
2018-12-05T01:52:56.971Z,102715.30
2018-12-05T01:55:30.102Z,102708.77
2018-12-05T01:58:02.536Z,102708.84
2018-12-05T02:00:32.603Z,102714.89
2018-12-05T02:03:02.844Z,102717.27
2018-12-05T02:05:33.120Z,102716.46
2018-12-05T02:08:03.286Z,102717.69
2018-12-05T02:10:35.740Z,102718.49
2018-12-05T02:13:05.547Z,102723.72
2018-12-05T02:15:36.908Z,102721.48
2018-12-05T02:18:07.592Z,102732.38
2018-12-05T02:20:37.684Z,102731.58
2018-12-05T02:23:13.488Z,102731.50
2018-12-05T02:25:45.095Z,102727.64
2018-12-05T02:28:13.750Z,102726.20
2018-12-05T02:30:43.938Z,102721.69
2018-12-05T02:33:14.107Z,102718.50
2018-12-05T02:35:46.115Z,102718.34
2018-12-05T02:38:13.981Z,102720.36
2018-12-05T02:40:46.538Z,102720.67
2018-12-05T02:43:18.607Z,102723.27
2018-12-05T02:45:46.753Z,102722.62
2018-12-05T02:48:17.168Z,102729.20
2018-12-05T02:50:47.361Z,102730.02
2018-12-05T02:53:23.576Z,102725.28
2018-12-05T02:55:53.611Z,102726.11
2018-12-05T02:58:23.736Z,102725.80
2018-12-05T03:00:56.307Z,102728.41
2018-12-05T03:03:28.603Z,102728.34
2018-12-05T03:05:58.393Z,102731.84
2018-12-05T03:08:28.297Z,102732.70
2018-12-05T03:10:57.917Z,102728.80
2018-12-05T03:13:28.157Z,102727.92
2018-12-05T03:15:57.933Z,102727.05
2018-12-05T03:18:31.510Z,102721.80
2018-12-05T03:21:01.537Z,102719.98
2018-12-05T03:23:31.645Z,102722.19
2018-12-05T03:26:01.772Z,102714.24
2018-12-05T03:28:31.721Z,102710.47
2018-12-05T03:31:01.620Z,102708.73
2018-12-05T03:33:31.503Z,102706.92
2018-12-05T03:36:01.753Z,102712.66
2018-12-05T03:38:32.299Z,102708.72
2018-12-05T03:41:08.835Z,102708.14
2018-12-05T03:43:39.080Z,102713.77
2018-12-05T03:46:09.882Z,102715.45
2018-12-05T03:48:40.311Z,102713.97
2018-12-05T03:51:10.371Z,102716.06
2018-12-05T03:53:42.954Z,102719.50
2018-12-05T03:56:13.045Z,102720.80
2018-12-05T03:58:43.392Z,102716.88
2018-12-05T04:01:17.571Z,102715.06
2018-12-05T04:03:49.948Z,102724.63
2018-12-05T04:06:19.598Z,102718.08
2018-12-05T04:08:52.297Z,102718.53
2018-12-05T04:11:23.018Z,102723.17
2018-12-05T04:13:53.092Z,102723.61
2018-12-05T04:16:24.129Z,102725.77
2018-12-05T04:18:56.428Z,102725.19
2018-12-05T04:21:26.447Z,102732.54
2018-12-05T04:23:57.362Z,102735.97
2018-12-05T04:26:31.539Z,102728.98
2018-12-05T04:29:01.791Z,102736.05
2018-12-05T04:31:31.757Z,102733.33
2018-12-05T04:34:01.654Z,102728.50
2018-12-05T04:36:37.120Z,102730.72
2018-12-05T04:39:07.067Z,102727.19
2018-12-05T04:41:37.479Z,102721.52
2018-12-05T04:44:07.562Z,102722.91
2018-12-05T04:46:37.634Z,102722.91
2018-12-05T04:49:07.955Z,102730.31
2018-12-05T04:51:37.979Z,102734.20
2018-12-05T04:54:08.492Z,102724.22
2018-12-05T04:56:41.104Z,102726.83
2018-12-05T04:59:09.068Z,102729.86
2018-12-05T05:01:39.089Z,102724.22
2018-12-05T05:04:09.682Z,102724.70
2018-12-05T05:06:42.172Z,102737.84
2018-12-05T05:09:11.774Z,102732.90
2018-12-05T05:11:44.349Z,102736.33
2018-12-05T05:14:12.432Z,102735.94
2018-12-05T05:16:42.390Z,102747.20
2018-12-05T05:19:14.518Z,102738.39
2018-12-05T05:21:53.121Z,102734.84
2018-12-05T05:24:26.384Z,102725.20
2018-12-05T05:26:57.000Z,102736.52
2018-12-05T05:29:30.236Z,102728.05
2018-12-05T05:32:00.410Z,102729.81
2018-12-05T05:34:30.975Z,102730.14
2018-12-05T05:37:01.516Z,102727.17
2018-12-05T05:39:32.457Z,102732.30
2018-12-05T05:42:05.522Z,102726.17
2018-12-05T05:44:35.535Z,102720.41
2018-12-05T05:47:05.575Z,102727.08
2018-12-05T05:49:36.682Z,102729.90
2018-12-05T05:52:07.141Z,102736.78
2018-12-05T05:54:37.191Z,102737.30
2018-12-05T05:57:09.061Z,102734.27
2018-12-05T05:59:39.651Z,102742.48
2018-12-05T06:02:09.900Z,102745.00
2018-12-05T06:04:40.501Z,102746.67
2018-12-05T06:07:10.524Z,102744.78
2018-12-05T06:09:43.033Z,102749.61
2018-12-05T06:12:16.217Z,102754.86
2018-12-05T06:14:47.643Z,102757.37
2018-12-05T06:17:17.829Z,102755.19
2018-12-05T06:19:47.491Z,102754.21
2018-12-05T06:22:20.695Z,102749.35
2018-12-05T06:24:51.525Z,102744.17
2018-12-05T06:27:21.709Z,102738.56
2018-12-05T06:29:52.161Z,102749.35
2018-12-05T06:32:22.021Z,102753.36
2018-12-05T06:34:54.533Z,102746.84
2018-12-05T06:37:24.755Z,102749.02
2018-12-05T06:39:57.575Z,102746.48
2018-12-05T06:42:27.833Z,102751.73
2018-12-05T06:44:57.897Z,102755.64
2018-12-05T06:47:31.434Z,102754.95
2018-12-05T06:50:02.118Z,102753.22
2018-12-05T06:52:32.455Z,102563.77
2018-12-05T06:55:05.910Z,102755.56
2018-12-05T06:57:34.725Z,102761.00
2018-12-05T07:00:05.571Z,102757.97
2018-12-05T07:02:35.909Z,102757.27
2018-12-05T07:05:06.815Z,102763.45
2018-12-05T07:07:37.569Z,102766.52
2018-12-05T07:10:07.585Z,102755.39
2018-12-05T07:12:41.868Z,102747.53
2018-12-05T07:15:14.577Z,102747.47
2018-12-05T07:17:42.416Z,102755.45
2018-12-05T07:20:12.446Z,102751.17
2018-12-05T07:22:42.963Z,102752.93
2018-12-05T07:25:13.566Z,102755.52
2018-12-05T07:27:43.515Z,102760.39
2018-12-05T07:30:13.231Z,102753.96
2018-12-05T07:32:43.235Z,102757.54
2018-12-05T07:35:12.703Z,102747.25
2018-12-05T07:37:43.461Z,102744.36
2018-12-05T07:40:14.563Z,102745.30
2018-12-05T07:42:48.705Z,102744.16
2018-12-05T07:45:20.644Z,102749.47
2018-12-05T07:47:50.972Z,102746.38
2018-12-05T07:50:26.409Z,102742.77
2018-12-05T07:52:56.667Z,102738.87
2018-12-05T07:55:27.161Z,102745.13
2018-12-05T07:57:58.340Z,102741.86
2018-12-05T08:00:28.893Z,102739.83
2018-12-05T08:02:59.577Z,102730.63
2018-12-05T08:05:32.953Z,102729.48
2018-12-05T08:08:03.874Z,102739.42
2018-12-05T08:10:34.093Z,102739.36
2018-12-05T08:13:05.296Z,102731.55
2018-12-05T08:15:35.105Z,102734.76
2018-12-05T08:18:06.400Z,102740.19
2018-12-05T08:20:38.553Z,102736.09
2018-12-05T08:23:09.000Z,102741.95
2018-12-05T08:25:40.876Z,102738.24
2018-12-05T08:28:10.768Z,102736.50
2018-12-05T08:30:41.248Z,102739.55
2018-12-05T08:33:14.483Z,102742.91
2018-12-05T08:35:47.397Z,102739.72
2018-12-05T08:38:20.444Z,102733.92
2018-12-05T08:40:51.082Z,102737.27
2018-12-05T08:43:22.142Z,102741.64
2018-12-05T08:45:56.604Z,102738.83
2018-12-05T08:48:27.049Z,102733.12
2018-12-05T08:50:58.745Z,102743.61
2018-12-05T08:53:29.943Z,102741.05
2018-12-05T08:56:00.269Z,102744.16
2018-12-05T08:58:32.129Z,102740.91
2018-12-05T09:01:03.148Z,102741.81
2018-12-05T09:03:34.050Z,102745.81
2018-12-05T09:06:07.043Z,102745.33
2018-12-05T09:08:41.771Z,102739.22
2018-12-05T09:11:30.521Z,102740.01
2018-12-05T09:14:05.138Z,102736.23
2018-12-05T09:16:35.667Z,102733.61
2018-12-05T09:19:08.928Z,102726.70
2018-12-05T09:21:45.506Z,102735.13
2018-12-05T09:24:17.044Z,102732.51
2018-12-05T09:26:52.255Z,102738.29
2018-12-05T09:29:27.265Z,102736.81
2018-12-05T09:32:05.209Z,102734.84
2018-12-05T09:34:37.552Z,102736.69
2018-12-05T09:37:06.203Z,102741.99
2018-12-05T09:39:36.511Z,102733.82
2018-12-05T09:42:07.378Z,102728.28
2018-12-05T09:44:38.183Z,102721.04
2018-12-05T09:47:15.723Z,102726.57
2018-12-05T09:49:39.592Z,102727.55
2018-12-05T09:52:15.529Z,102717.73
2018-12-05T09:54:47.077Z,102728.86
2018-12-05T09:57:21.282Z,102720.23
2018-12-05T09:59:49.444Z,102720.84
2018-12-05T10:02:20.783Z,102709.73
2018-12-05T10:04:56.408Z,102723.04
2018-12-05T10:07:32.893Z,102714.80
2018-12-05T10:10:00.114Z,102714.75
2018-12-05T10:12:33.327Z,102716.30
2018-12-05T10:15:06.066Z,102705.16
2018-12-05T10:17:37.427Z,102715.02
2018-12-05T10:20:13.860Z,102710.39
2018-12-05T10:22:46.054Z,102694.37
2018-12-05T10:25:16.597Z,102695.41
2018-12-05T10:27:47.625Z,102686.26
2018-12-05T10:30:19.252Z,102687.28
2018-12-05T10:32:52.287Z,102685.65
2018-12-05T10:35:24.018Z,102676.06
2018-12-05T10:37:57.558Z,102674.34
2018-12-05T10:40:28.065Z,102678.94
2018-12-05T10:42:58.761Z,102675.57
2018-12-05T10:45:32.383Z,102681.30
2018-12-05T10:48:10.020Z,102674.89
2018-12-05T10:50:44.857Z,102672.73
2018-12-05T10:53:27.229Z,102657.95
2018-12-05T10:56:01.987Z,102653.19
2018-12-05T10:58:33.039Z,102654.67
2018-12-05T11:01:23.700Z,102641.73
2018-12-05T11:04:00.818Z,102639.08
2018-12-05T11:06:49.286Z,102639.99
2018-12-05T11:09:40.708Z,102631.64
2018-12-05T11:12:36.024Z,102624.77
2018-12-05T11:15:27.801Z,102624.77
2018-12-05T11:18:20.807Z,102620.98
2018-12-05T11:21:10.687Z,102614.85
2018-12-05T11:24:04.651Z,102614.85
2018-12-05T11:26:43.221Z,102610.06
2018-12-05T11:29:16.720Z,102610.06
2018-12-05T11:31:46.900Z,102610.76
2018-12-05T11:34:17.486Z,102607.16
2018-12-05T11:36:47.952Z,102603.61
2018-12-05T11:39:23.756Z,102608.08
2018-12-05T11:41:54.406Z,102595.71
2018-12-05T11:44:25.352Z,102589.78
2018-12-05T11:46:55.708Z,102590.62
2018-12-05T11:49:26.302Z,102592.17
2018-12-05T11:51:56.631Z,102588.92
2018-12-05T11:54:30.623Z,102583.80
2018-12-05T11:56:59.964Z,102583.52
2018-12-05T11:59:30.469Z,102578.91
2018-12-05T12:02:04.522Z,102576.44
2018-12-05T12:04:37.252Z,102575.18
2018-12-05T12:07:08.552Z,102568.22
2018-12-05T12:09:42.011Z,102569.72
2018-12-05T12:12:30.291Z,102567.23
2018-12-05T12:15:00.683Z,102562.63
2018-12-05T12:17:31.315Z,102551.91
2018-12-05T12:20:01.963Z,102554.52
2018-12-05T12:22:32.169Z,102554.41
2018-12-05T12:25:02.888Z,102544.84
2018-12-05T12:27:34.349Z,102539.16
2018-12-05T12:30:05.186Z,102538.80
2018-12-05T12:32:37.769Z,102529.05
2018-12-05T12:35:09.356Z,102530.20
2018-12-05T12:37:40.488Z,102533.22
2018-12-05T12:40:11.647Z,102529.09
2018-12-05T12:42:42.797Z,102518.17
2018-12-05T12:45:13.691Z,102516.02
2018-12-05T12:47:45.148Z,102513.14
2018-12-05T12:50:15.464Z,102507.22
2018-12-05T12:52:45.872Z,102513.05
2018-12-05T12:55:17.991Z,102516.34
2018-12-05T12:57:50.179Z,102514.91
2018-12-05T13:00:20.472Z,102511.42
2018-12-05T13:02:50.945Z,102510.72
2018-12-05T13:05:22.235Z,102509.68
2018-12-05T13:07:56.068Z,102508.11
2018-12-05T13:10:28.627Z,102497.21
2018-12-05T13:12:56.634Z,102495.97
2018-12-05T13:15:26.826Z,102489.93
2018-12-05T13:18:00.704Z,102492.19
2018-12-05T13:20:31.657Z,102485.62
2018-12-05T13:23:01.880Z,102483.02
2018-12-05T13:25:33.953Z,102475.98
2018-12-05T13:28:05.102Z,102468.06
2018-12-05T13:30:36.185Z,102475.53
2018-12-05T13:33:07.320Z,102453.59
2018-12-05T13:35:40.997Z,102446.11
2018-12-05T13:38:10.965Z,102428.11
2018-12-05T13:40:40.876Z,102428.11
2018-12-05T13:43:11.831Z,102423.72
2018-12-05T13:45:46.382Z,102423.72
2018-12-05T13:48:17.234Z,102423.73
2018-12-05T13:50:48.674Z,102431.19
2018-12-05T13:53:21.222Z,102434.68
2018-12-05T13:55:50.531Z,102428.94
2018-12-05T13:58:20.674Z,102428.47
2018-12-05T14:00:51.582Z,102422.31
2018-12-05T14:03:22.158Z,102425.34
2018-12-05T14:05:54.720Z,102427.00
2018-12-05T14:08:25.160Z,102416.88
2018-12-05T14:10:56.188Z,102423.43
2018-12-05T14:13:26.515Z,102415.03
2018-12-05T14:15:57.347Z,102413.22
2018-12-05T14:18:28.565Z,102413.61
2018-12-05T14:21:01.687Z,102418.80
2018-12-05T14:23:32.305Z,102416.99
2018-12-05T14:26:02.697Z,102416.94
2018-12-05T14:28:33.286Z,102416.92
2018-12-05T14:31:03.250Z,102413.36
2018-12-05T14:33:33.262Z,102409.34
2018-12-05T14:36:05.648Z,102409.72
2018-12-05T14:38:36.022Z,102410.09
2018-12-05T14:41:06.836Z,102410.45
2018-12-05T14:43:37.600Z,102404.70
2018-12-05T14:46:07.605Z,102404.19
2018-12-05T14:48:41.702Z,102399.70
2018-12-05T14:51:16.565Z,102400.91
2018-12-05T14:53:47.783Z,102397.73
2018-12-05T14:56:21.637Z,102398.52
2018-12-05T14:58:53.388Z,102391.84
2018-12-05T15:01:24.126Z,102386.50
2018-12-05T15:03:54.428Z,102387.27
2018-12-05T15:06:24.373Z,102373.22
2018-12-05T15:08:56.620Z,102374.06
2018-12-05T15:11:27.266Z,102370.06
2018-12-05T15:13:59.432Z,102371.78
2018-12-05T15:16:31.726Z,102372.58
2018-12-05T15:19:05.322Z,102370.39
2018-12-05T15:21:35.727Z,102369.05
2018-12-05T15:24:09.976Z,102363.80
2018-12-05T15:26:40.798Z,102358.13
2018-12-05T15:29:11.712Z,102350.70
2018-12-05T15:31:44.787Z,102347.23
2018-12-05T15:34:15.471Z,102343.73
2018-12-05T15:36:49.125Z,102338.56
2018-12-05T15:39:19.484Z,102329.85
2018-12-05T15:41:52.570Z,102328.60
2018-12-05T15:44:23.176Z,102328.25
2018-12-05T15:46:54.320Z,102321.75
2018-12-05T15:49:24.633Z,102316.59
2018-12-05T15:51:57.655Z,102303.99
2018-12-05T15:54:30.342Z,102293.98
2018-12-05T15:57:01.239Z,102294.42
2018-12-05T15:59:31.564Z,102293.14
2018-12-05T16:02:02.070Z,102287.03
2018-12-05T16:04:32.532Z,102274.79
2018-12-05T16:07:03.500Z,102268.25
2018-12-05T16:09:33.780Z,102269.11
2018-12-05T16:12:03.729Z,102258.60
2018-12-05T16:14:34.208Z,102270.47
2018-12-05T16:17:05.010Z,102258.65
2018-12-05T16:19:35.202Z,102250.32
2018-12-05T16:22:05.383Z,102253.81
2018-12-05T16:24:38.315Z,102252.06
2018-12-05T16:27:12.021Z,102238.53
2018-12-05T16:29:42.455Z,102238.09
2018-12-05T16:32:13.509Z,102227.61
2018-12-05T16:34:44.513Z,102212.34
2018-12-05T16:37:15.551Z,102227.22
2018-12-05T16:39:45.928Z,102218.03
2018-12-05T16:42:16.223Z,102218.02
2018-12-05T16:44:48.730Z,102204.47
2018-12-05T16:47:19.351Z,102207.07
2018-12-05T16:49:50.471Z,102199.64
2018-12-05T16:52:21.925Z,102193.08
2018-12-05T16:54:52.605Z,102177.30
2018-12-05T16:57:23.395Z,102182.97
2018-12-05T16:59:57.431Z,102195.22
2018-12-05T17:02:26.299Z,102188.23
2018-12-05T17:04:56.898Z,102186.00
2018-12-05T17:07:27.567Z,102186.00
2018-12-05T17:09:58.087Z,102182.89
2018-12-05T17:12:28.763Z,102186.85
2018-12-05T17:14:59.305Z,102178.98
2018-12-05T17:17:29.377Z,102165.86
2018-12-05T17:20:00.322Z,102171.55
2018-12-05T17:22:30.932Z,102154.94
2018-12-05T17:25:03.940Z,102155.84
2018-12-05T17:27:32.727Z,102141.87
2018-12-05T17:30:03.457Z,102140.16
2018-12-05T17:32:34.198Z,102141.91
2018-12-05T17:35:14.238Z,102141.48
2018-12-05T17:37:44.783Z,102137.52
2018-12-05T17:40:15.415Z,102138.38
2018-12-05T17:42:46.189Z,102135.76
2018-12-05T17:45:16.536Z,102126.16
2018-12-05T17:47:47.411Z,102119.16
2018-12-05T17:50:20.767Z,102119.64
2018-12-05T17:52:51.769Z,102118.31
2018-12-05T17:55:22.787Z,102114.39
2018-12-05T17:57:52.961Z,102118.77
2018-12-05T18:00:23.123Z,102117.89
2018-12-05T18:02:55.019Z,102105.64
2018-12-05T18:05:29.432Z,102108.25
2018-12-05T18:08:01.105Z,102108.71
2018-12-05T18:10:32.363Z,102099.08
2018-12-05T18:13:03.677Z,102096.05
2018-12-05T18:15:37.746Z,102096.45
2018-12-05T18:18:07.785Z,102094.28
2018-12-05T18:20:40.496Z,102091.20
2018-12-05T18:23:15.260Z,102092.11
2018-12-05T18:25:46.247Z,102080.30
2018-12-05T18:28:15.868Z,102073.73
2018-12-05T18:30:49.161Z,102070.37
2018-12-05T18:33:21.661Z,102073.94
2018-12-05T18:35:59.092Z,102064.30
2018-12-05T18:38:32.461Z,102054.67
2018-12-05T18:41:04.374Z,102060.77
2018-12-05T18:43:38.809Z,102052.02
2018-12-05T18:46:10.059Z,102055.05
2018-12-05T18:48:51.443Z,102049.77
2018-12-05T18:51:27.704Z,102046.71
2018-12-05T18:54:02.089Z,102037.52
2018-12-05T18:56:35.187Z,102031.84
2018-12-05T18:59:34.689Z,102024.80
2018-12-05T19:02:06.886Z,102016.50
2018-12-05T19:04:37.376Z,102016.04
2018-12-05T19:07:10.262Z,102009.03
2018-12-05T19:09:40.517Z,102011.67
2018-12-05T19:12:14.563Z,102009.48
2018-12-05T19:14:47.847Z,102015.15
2018-12-05T19:20:35.597Z,102002.91
2018-12-05T19:23:12.121Z,102004.66
2018-12-05T19:25:57.899Z,101997.20
2018-12-05T19:28:30.607Z,101991.52
2018-12-05T19:31:00.747Z,102003.77
2018-12-05T19:33:32.471Z,101994.14
2018-12-05T19:36:05.249Z,101988.45
2018-12-05T19:38:36.555Z,101980.13
2018-12-05T19:41:11.475Z,101979.28
2018-12-05T19:43:45.892Z,101963.06
2018-12-05T19:46:16.973Z,101963.50
2018-12-05T19:48:59.732Z,101956.92
2018-12-05T19:51:29.896Z,101950.80
2018-12-05T19:54:02.402Z,101962.19
2018-12-05T19:56:32.886Z,101959.10
2018-12-05T19:59:06.483Z,101966.98
2018-12-05T20:01:37.388Z,101962.17
2018-12-05T20:04:09.856Z,101956.94
2018-12-05T20:06:41.324Z,101948.59
2018-12-05T20:09:11.792Z,101943.81
2018-12-05T20:11:42.674Z,101944.66
2018-12-05T20:14:33.171Z,101942.03
2018-12-05T20:17:04.266Z,101939.42
2018-12-05T20:19:35.089Z,101933.70
2018-12-05T20:22:10.248Z,101930.64
2018-12-05T20:24:43.185Z,101928.45
2018-12-05T20:27:13.171Z,101917.08
2018-12-05T20:29:46.397Z,101912.70
2018-12-05T20:32:16.644Z,101910.94
2018-12-05T20:34:49.910Z,101910.05
2018-12-05T20:37:21.389Z,101912.68
2018-12-05T20:39:53.448Z,101899.55
2018-12-05T20:42:27.186Z,101905.67
2018-12-05T20:44:58.665Z,101891.67
2018-12-05T20:47:29.913Z,101892.55
2018-12-05T20:50:01.057Z,101887.29
2018-12-05T20:52:32.237Z,101888.16
2018-12-05T20:55:02.389Z,101880.28
2018-12-05T20:57:32.205Z,101873.30
2018-12-05T21:00:03.555Z,101871.98
2018-12-05T21:02:34.925Z,101865.39
2018-12-05T21:05:06.414Z,101864.09
2018-12-05T21:07:36.156Z,101854.45
2018-12-05T21:10:06.802Z,101854.03
2018-12-05T21:12:37.415Z,101861.46
2018-12-05T21:15:11.405Z,101861.00
2018-12-05T21:17:42.055Z,101857.94
2018-12-05T21:20:12.861Z,101848.75
2018-12-05T21:22:47.122Z,101847.02
2018-12-05T21:25:13.525Z,101834.77
2018-12-05T21:27:45.777Z,101836.53
2018-12-05T21:30:16.387Z,101843.09
2018-12-05T21:32:48.506Z,101848.37
2018-12-05T21:35:19.157Z,101852.77
2018-12-05T21:37:50.491Z,101840.05
2018-12-05T21:40:26.508Z,101835.24
2018-12-05T21:42:57.215Z,101834.39
2018-12-05T21:45:32.062Z,101831.75
2018-12-05T21:48:02.174Z,101827.38
2018-12-05T21:50:35.328Z,101821.68
2018-12-05T21:53:09.012Z,101823.44
2018-12-05T21:55:43.442Z,101826.06
2018-12-05T21:58:18.747Z,101829.57
2018-12-05T22:00:54.265Z,101827.38
2018-12-05T22:03:26.707Z,101824.75
2018-12-05T22:06:00.028Z,101822.12
2018-12-05T22:08:35.858Z,101812.94
2018-12-05T22:11:14.594Z,101816.89
2018-12-05T22:13:53.621Z,101823.86
2018-12-05T22:16:26.081Z,101819.92
2018-12-05T22:19:00.441Z,101819.92
2018-12-05T22:21:33.134Z,101815.98
2018-12-05T22:24:03.673Z,101808.11
2018-12-05T22:26:36.429Z,101804.62
2018-12-05T22:29:06.959Z,101809.42
2018-12-05T22:31:40.430Z,101811.20
2018-12-05T22:34:09.755Z,101811.62
2018-12-05T22:36:40.557Z,101811.20
2018-12-05T22:39:16.235Z,101802.88
2018-12-05T22:41:49.250Z,101803.33
2018-12-05T22:44:19.880Z,101802.86
2018-12-05T22:46:51.949Z,101799.39
2018-12-05T22:49:25.573Z,101795.02
2018-12-05T22:51:56.323Z,101794.12
2018-12-05T22:54:30.552Z,101788.45
2018-12-05T22:57:19.615Z,101785.83
2018-12-05T22:59:55.095Z,101790.19
2018-12-05T23:02:26.889Z,101789.30
2018-12-05T23:05:04.993Z,101777.92
2018-12-05T23:07:41.895Z,101771.81
2018-12-05T23:10:15.273Z,101770.50
2018-12-05T23:12:46.372Z,101761.77
2018-12-05T23:15:32.815Z,101759.56
2018-12-05T23:18:12.455Z,101753.88
2018-12-05T23:20:49.501Z,101752.98
2018-12-05T23:23:33.179Z,101746.02
2018-12-05T23:26:09.966Z,101746.00
2018-12-05T23:28:49.010Z,101742.05
2018-12-05T23:31:19.044Z,101738.13
2018-12-05T23:33:50.939Z,101743.39
2018-12-05T23:36:24.601Z,101739.88
2018-12-05T23:38:59.976Z,101736.37
2018-12-05T23:41:39.307Z,101732.89
2018-12-05T23:44:13.981Z,101732.88
2018-12-05T23:46:52.869Z,101729.83
2018-12-05T23:49:30.797Z,101714.08
2018-12-05T23:52:08.349Z,101714.52
2018-12-05T23:54:48.475Z,101698.34
2018-12-05T23:57:30.846Z,101702.70
